createdAt,value
2023-05-01T00:00:19.558Z,562.00
2023-05-01T00:01:19.466Z,563.00
2023-05-01T00:02:19.594Z,565.00
2023-05-01T00:03:19.648Z,564.00
2023-05-01T00:04:19.780Z,563.00
2023-05-01T00:05:19.613Z,565.00
2023-05-01T00:06:19.696Z,563.00
2023-05-01T00:07:20.573Z,561.00
2023-05-01T00:08:19.724Z,562.00
2023-05-01T00:09:19.785Z,562.00
2023-05-01T00:10:19.846Z,561.00
2023-05-01T00:11:19.861Z,561.00
2023-05-01T00:12:19.909Z,562.00
2023-05-01T00:13:19.964Z,564.00
2023-05-01T00:14:20.039Z,563.00
2023-05-01T00:15:20.093Z,562.00
2023-05-01T00:16:20.140Z,563.00
2023-05-01T00:17:20.156Z,563.00
2023-05-01T00:18:20.208Z,564.00
2023-05-01T00:19:20.282Z,565.00
2023-05-01T00:20:20.337Z,565.00
2023-05-01T00:21:20.365Z,564.00
2023-05-01T00:22:20.362Z,564.00
2023-05-01T00:23:20.403Z,565.00
2023-05-01T00:24:20.444Z,565.00
2023-05-01T00:25:20.602Z,564.00
2023-05-01T00:26:20.587Z,564.00
2023-05-01T00:27:20.583Z,566.00
2023-05-01T00:28:20.712Z,567.00
2023-05-01T00:29:20.660Z,570.00
2023-05-01T00:30:20.795Z,571.00
2023-05-01T00:31:20.834Z,571.00
2023-05-01T00:32:20.959Z,572.00
2023-05-01T00:33:20.866Z,573.00
2023-05-01T00:34:20.903Z,572.00
2023-05-01T00:35:20.998Z,574.00
2023-05-01T00:36:21.030Z,574.00
2023-05-01T00:37:21.038Z,572.00
2023-05-01T00:38:21.060Z,572.00
2023-05-01T00:39:21.143Z,571.00
2023-05-01T00:40:21.137Z,570.00
2023-05-01T00:41:21.365Z,568.00
2023-05-01T00:42:21.217Z,568.00
2023-05-01T00:43:21.268Z,568.00
2023-05-01T00:44:21.299Z,568.00
2023-05-01T00:45:21.332Z,567.00
2023-05-01T00:46:21.452Z,569.00
2023-05-01T00:47:21.463Z,569.00
2023-05-01T00:48:21.431Z,570.00
2023-05-01T00:49:21.540Z,572.00
2023-05-01T00:50:21.600Z,571.00
2023-05-01T00:51:21.576Z,573.00
2023-05-01T00:52:21.575Z,574.00
2023-05-01T00:53:21.603Z,575.00
2023-05-01T00:54:21.688Z,575.00
2023-05-01T00:55:21.682Z,574.00
2023-05-01T00:56:21.752Z,575.00
2023-05-01T00:57:21.786Z,575.00
2023-05-01T00:58:21.853Z,574.00
2023-05-01T00:59:21.867Z,575.00
2023-05-01T01:00:21.893Z,572.00
2023-05-01T01:01:21.946Z,571.00
2023-05-01T01:02:21.930Z,571.00
2023-05-01T01:03:21.935Z,572.00
2023-05-01T01:04:22.019Z,571.00
2023-05-01T01:05:22.623Z,570.00
2023-05-01T01:06:22.116Z,568.00
2023-05-01T01:07:22.093Z,568.00
2023-05-01T01:08:22.121Z,567.00
2023-05-01T01:09:22.184Z,567.00
2023-05-01T01:10:22.221Z,569.00
2023-05-01T01:11:22.240Z,568.00
2023-05-01T01:12:22.290Z,569.00
2023-05-01T01:13:22.323Z,571.00
2023-05-01T01:14:22.323Z,571.00
2023-05-01T01:15:22.374Z,573.00
2023-05-01T01:16:22.441Z,575.00
2023-05-01T01:17:22.468Z,576.00
2023-05-01T01:18:22.473Z,576.00
2023-05-01T01:19:22.499Z,576.00
2023-05-01T01:20:22.496Z,576.00
2023-05-01T01:21:22.528Z,575.00
2023-05-01T01:22:22.597Z,576.00
2023-05-01T01:23:22.603Z,575.00
2023-05-01T01:24:22.636Z,576.00
2023-05-01T01:25:22.644Z,575.00
2023-05-01T01:26:22.702Z,575.00
2023-05-01T01:27:22.783Z,575.00
2023-05-01T01:28:22.772Z,573.00
2023-05-01T01:29:22.849Z,573.00
2023-05-01T01:30:22.884Z,573.00
2023-05-01T01:31:22.887Z,572.00
2023-05-01T01:32:22.984Z,574.00
2023-05-01T01:33:22.909Z,573.00
2023-05-01T01:34:22.961Z,576.00
2023-05-01T01:35:22.996Z,574.00
2023-05-01T01:36:23.069Z,574.00
2023-05-01T01:37:23.067Z,572.00
2023-05-01T01:38:23.132Z,572.00
2023-05-01T01:39:23.140Z,572.00
2023-05-01T01:40:23.188Z,573.00
2023-05-01T01:41:23.249Z,574.00
2023-05-01T01:42:23.299Z,573.00
2023-05-01T01:43:23.297Z,571.00
2023-05-01T01:44:23.325Z,571.00
2023-05-01T01:45:23.384Z,570.00
2023-05-01T01:46:23.483Z,570.00
2023-05-01T01:47:23.513Z,572.00
2023-05-01T01:48:23.492Z,571.00
2023-05-01T01:49:23.488Z,570.00
2023-05-01T01:50:23.577Z,572.00
2023-05-01T01:51:23.605Z,572.00
2023-05-01T01:52:23.640Z,571.00
2023-05-01T01:53:23.657Z,571.00
2023-05-01T01:54:23.677Z,569.00
2023-05-01T01:55:23.710Z,568.00
2023-05-01T01:56:23.719Z,568.00
2023-05-01T01:57:23.769Z,570.00
2023-05-01T01:58:23.831Z,573.00
2023-05-01T01:59:23.848Z,575.00
2023-05-01T02:00:23.888Z,576.00
2023-05-01T02:01:23.938Z,576.00
2023-05-01T02:02:23.992Z,575.00
2023-05-01T02:03:24.104Z,574.00
2023-05-01T02:04:24.033Z,573.00
2023-05-01T02:05:24.069Z,573.00
2023-05-01T02:06:24.113Z,574.00
2023-05-01T02:07:26.123Z,575.00
2023-05-01T02:08:24.169Z,577.00
2023-05-01T02:09:24.209Z,577.00
2023-05-01T02:10:24.246Z,575.00
2023-05-01T02:11:24.261Z,577.00
2023-05-01T02:12:24.325Z,576.00
2023-05-01T02:13:24.339Z,574.00
2023-05-01T02:14:24.351Z,575.00
2023-05-01T02:15:24.359Z,574.00
2023-05-01T02:16:24.437Z,576.00
2023-05-01T02:17:24.419Z,574.00
2023-05-01T02:18:24.382Z,574.00
2023-05-01T02:19:24.390Z,574.00
2023-05-01T02:20:24.409Z,573.00
2023-05-01T02:21:24.430Z,572.00
2023-05-01T02:22:24.592Z,571.00
2023-05-01T02:23:24.417Z,572.00
2023-05-01T02:24:24.423Z,570.00
2023-05-01T02:25:24.456Z,571.00
2023-05-01T02:26:24.538Z,570.00
2023-05-01T02:27:24.547Z,571.00
2023-05-01T02:28:24.594Z,572.00
2023-05-01T02:29:24.632Z,572.00
2023-05-01T02:30:24.667Z,574.00
2023-05-01T02:31:24.725Z,573.00
2023-05-01T02:32:25.158Z,573.00
2023-05-01T02:33:24.771Z,574.00
2023-05-01T02:34:24.830Z,572.00
2023-05-01T02:35:24.824Z,572.00
2023-05-01T02:36:24.898Z,574.00
2023-05-01T02:37:24.915Z,572.00
2023-05-01T02:38:24.977Z,573.00
2023-05-01T02:39:25.030Z,573.00
2023-05-01T02:40:25.028Z,575.00
2023-05-01T02:41:25.105Z,575.00
2023-05-01T02:42:25.137Z,574.00
2023-05-01T02:43:25.153Z,573.00
2023-05-01T02:44:25.190Z,573.00
2023-05-01T02:45:25.312Z,574.00
2023-05-01T02:46:25.323Z,575.00
2023-05-01T02:47:27.241Z,574.00
2023-05-01T02:48:25.324Z,574.00
2023-05-01T02:49:25.365Z,574.00
2023-05-01T02:50:25.357Z,573.00
2023-05-01T02:51:25.394Z,574.00
2023-05-01T02:52:25.423Z,573.00
2023-05-01T02:53:25.464Z,573.00
2023-05-01T02:54:25.480Z,573.00
2023-05-01T02:55:25.500Z,574.00
2023-05-01T02:56:25.575Z,576.00
2023-05-01T02:57:25.566Z,576.00
2023-05-01T02:58:25.607Z,576.00
2023-05-01T02:59:25.670Z,576.00
2023-05-01T03:00:25.733Z,576.00
2023-05-01T03:01:25.841Z,576.00
2023-05-01T03:02:25.793Z,574.00
2023-05-01T03:03:25.798Z,574.00
2023-05-01T03:04:25.900Z,576.00
2023-05-01T03:05:25.892Z,576.00
2023-05-01T03:06:25.952Z,575.00
2023-05-01T03:07:25.976Z,572.00
2023-05-01T03:08:26.068Z,571.00
2023-05-01T03:09:26.023Z,570.00
2023-05-01T03:10:26.082Z,573.00
2023-05-01T03:11:26.117Z,571.00
2023-05-01T03:12:26.186Z,571.00
2023-05-01T03:13:26.125Z,569.00
2023-05-01T03:14:26.156Z,570.00
2023-05-01T03:15:26.186Z,571.00
2023-05-01T03:16:26.244Z,573.00
2023-05-01T03:17:26.252Z,575.00
2023-05-01T03:18:26.243Z,574.00
2023-05-01T03:19:26.329Z,574.00
2023-05-01T03:20:27.443Z,573.00
2023-05-01T03:21:26.333Z,573.00
2023-05-01T03:22:26.387Z,572.00
2023-05-01T03:23:26.437Z,572.00
2023-05-01T03:24:26.466Z,573.00
2023-05-01T03:25:26.500Z,573.00
2023-05-01T03:26:26.535Z,572.00
2023-05-01T03:27:26.605Z,571.00
2023-05-01T03:28:26.659Z,571.00
2023-05-01T03:29:26.671Z,572.00
2023-05-01T03:30:26.719Z,570.00
2023-05-01T03:31:26.815Z,571.00
2023-05-01T03:32:26.902Z,571.00
2023-05-01T03:33:26.855Z,572.00
2023-05-01T03:34:26.913Z,571.00
2023-05-01T03:35:26.980Z,570.00
2023-05-01T03:36:27.023Z,570.00
2023-05-01T03:37:27.025Z,569.00
2023-05-01T03:38:27.005Z,570.00
2023-05-01T03:39:27.113Z,570.00
2023-05-01T03:40:27.084Z,571.00
2023-05-01T03:41:27.119Z,573.00
2023-05-01T03:42:27.162Z,574.00
2023-05-01T03:43:27.184Z,576.00
2023-05-01T03:44:27.208Z,579.00
2023-05-01T03:45:27.237Z,579.00
2023-05-01T03:46:27.392Z,577.00
2023-05-01T03:47:27.704Z,575.00
2023-05-01T03:48:27.351Z,574.00
2023-05-01T03:49:27.379Z,573.00
2023-05-01T03:50:27.400Z,574.00
2023-05-01T03:51:27.446Z,575.00
2023-05-01T03:52:27.473Z,575.00
2023-05-01T03:53:27.479Z,575.00
2023-05-01T03:54:27.545Z,575.00
2023-05-01T03:55:27.577Z,576.00
2023-05-01T03:56:27.633Z,575.00
2023-05-01T03:57:27.679Z,575.00
2023-05-01T03:58:27.728Z,573.00
2023-05-01T03:59:27.753Z,572.00
2023-05-01T04:00:27.782Z,571.00
2023-05-01T04:01:27.832Z,572.00
2023-05-01T04:02:28.010Z,574.00
2023-05-01T04:03:27.988Z,575.00
2023-05-01T04:04:28.007Z,576.00
2023-05-01T04:05:27.993Z,576.00
2023-05-01T04:06:28.130Z,574.00
2023-05-01T04:07:28.116Z,572.00
2023-05-01T04:08:28.118Z,573.00
2023-05-01T04:09:28.126Z,572.00
2023-05-01T04:10:28.187Z,573.00
2023-05-01T04:11:28.222Z,575.00
2023-05-01T04:12:28.229Z,574.00
2023-05-01T04:13:28.286Z,576.00
2023-05-01T04:14:28.324Z,575.00
2023-05-01T04:15:28.426Z,575.00
2023-05-01T04:16:28.451Z,575.00
2023-05-01T04:17:28.461Z,575.00
2023-05-01T04:18:28.520Z,575.00
2023-05-01T04:19:28.544Z,575.00
2023-05-01T04:20:28.582Z,577.00
2023-05-01T04:21:28.660Z,577.00
2023-05-01T04:22:28.694Z,576.00
2023-05-01T04:23:28.778Z,577.00
2023-05-01T04:24:28.799Z,575.00
2023-05-01T04:25:28.812Z,577.00
2023-05-01T04:26:28.882Z,576.00
2023-05-01T04:27:29.162Z,577.00
2023-05-01T04:28:28.969Z,576.00
2023-05-01T04:29:29.113Z,578.00
2023-05-01T04:30:29.035Z,578.00
2023-05-01T04:31:29.187Z,578.00
2023-05-01T04:32:29.155Z,578.00
2023-05-01T04:33:29.187Z,575.00
2023-05-01T04:34:29.292Z,576.00
2023-05-01T04:35:29.347Z,576.00
2023-05-01T04:36:29.306Z,576.00
2023-05-01T04:37:30.183Z,576.00
2023-05-01T04:38:29.392Z,575.00
2023-05-01T04:39:29.417Z,574.00
2023-05-01T04:40:29.439Z,575.00
2023-05-01T04:41:29.541Z,573.00
2023-05-01T04:42:29.521Z,576.00
2023-05-01T04:43:29.607Z,576.00
2023-05-01T04:44:29.642Z,577.00
2023-05-01T04:45:29.688Z,579.00
2023-05-01T04:46:30.176Z,577.00
2023-05-01T04:47:30.650Z,578.00
2023-05-01T04:48:29.818Z,578.00
2023-05-01T04:49:29.864Z,577.00
2023-05-01T04:50:29.880Z,577.00
2023-05-01T04:51:29.936Z,578.00
2023-05-01T04:52:29.983Z,577.00
2023-05-01T04:53:30.054Z,577.00
2023-05-01T04:54:30.077Z,576.00
2023-05-01T04:55:31.190Z,576.00
2023-05-01T04:56:30.184Z,578.00
2023-05-01T04:57:30.226Z,578.00
2023-05-01T04:58:30.290Z,582.00
2023-05-01T04:59:30.278Z,582.00
2023-05-01T05:00:30.334Z,579.00
2023-05-01T05:01:30.342Z,580.00
2023-05-01T05:02:30.452Z,578.00
2023-05-01T05:03:30.450Z,579.00
2023-05-01T05:04:30.442Z,580.00
2023-05-01T05:05:30.565Z,581.00
2023-05-01T05:06:30.509Z,581.00
2023-05-01T05:07:30.546Z,581.00
2023-05-01T05:08:30.618Z,582.00
2023-05-01T05:09:30.618Z,583.00
2023-05-01T05:10:30.666Z,583.00
2023-05-01T05:11:30.690Z,581.00
2023-05-01T05:12:30.715Z,581.00
2023-05-01T05:13:30.836Z,581.00
2023-05-01T05:14:30.845Z,582.00
2023-05-01T05:15:30.880Z,583.00
2023-05-01T05:16:30.907Z,582.00
2023-05-01T05:17:30.997Z,580.00
2023-05-01T05:18:30.992Z,580.00
2023-05-01T05:19:31.073Z,578.00
2023-05-01T05:20:31.102Z,577.00
2023-05-01T05:21:31.124Z,575.00
2023-05-01T05:22:31.181Z,576.00
2023-05-01T05:23:31.203Z,577.00
2023-05-01T05:24:31.247Z,579.00
2023-05-01T05:25:31.258Z,581.00
2023-05-01T05:26:31.350Z,579.00
2023-05-01T05:27:31.345Z,577.00
2023-05-01T05:28:31.368Z,575.00
2023-05-01T05:29:31.450Z,575.00
2023-05-01T05:30:31.482Z,574.00
2023-05-01T05:31:31.559Z,574.00
2023-05-01T05:32:31.670Z,575.00
2023-05-01T05:33:31.565Z,573.00
2023-05-01T05:34:31.581Z,574.00
2023-05-01T05:35:31.648Z,574.00
2023-05-01T05:36:31.718Z,575.00
2023-05-01T05:37:31.745Z,578.00
2023-05-01T05:38:31.752Z,578.00
2023-05-01T05:39:31.824Z,576.00
2023-05-01T05:40:31.824Z,576.00
2023-05-01T05:41:31.840Z,576.00
2023-05-01T05:42:31.885Z,578.00
2023-05-01T05:43:32.681Z,578.00
2023-05-01T05:44:31.966Z,579.00
2023-05-01T05:45:31.975Z,579.00
2023-05-01T05:46:32.163Z,581.00
2023-05-01T05:47:32.037Z,583.00
2023-05-01T05:48:32.089Z,585.00
2023-05-01T05:49:32.134Z,585.00
2023-05-01T05:50:32.090Z,582.00
2023-05-01T05:51:32.150Z,583.00
2023-05-01T05:52:32.152Z,586.00
2023-05-01T05:53:32.200Z,586.00
2023-05-01T05:54:32.203Z,584.00
2023-05-01T05:55:32.232Z,584.00
2023-05-01T05:56:32.300Z,584.00
2023-05-01T05:57:32.314Z,584.00
2023-05-01T05:58:32.341Z,583.00
2023-05-01T05:59:32.357Z,582.00
2023-05-01T06:00:32.377Z,583.00
2023-05-01T06:01:32.446Z,580.00
2023-05-01T06:02:32.589Z,581.00
2023-05-01T06:03:32.595Z,581.00
2023-05-01T06:04:32.506Z,580.00
2023-05-01T06:05:32.670Z,582.00
2023-05-01T06:06:32.637Z,584.00
2023-05-01T06:07:32.652Z,585.00
2023-05-01T06:08:32.740Z,584.00
2023-05-01T06:09:32.754Z,585.00
2023-05-01T06:10:32.770Z,584.00
2023-05-01T06:11:32.784Z,585.00
2023-05-01T06:12:33.717Z,583.00
2023-05-01T06:13:32.936Z,584.00
2023-05-01T06:14:32.786Z,582.00
2023-05-01T06:15:32.847Z,583.00
2023-05-01T06:16:32.857Z,584.00
2023-05-01T06:17:32.813Z,583.00
2023-05-01T06:18:32.791Z,581.00
2023-05-01T06:19:32.741Z,581.00
2023-05-01T06:20:32.790Z,581.00
2023-05-01T06:21:32.771Z,583.00
2023-05-01T06:22:32.762Z,583.00
2023-05-01T06:23:32.749Z,584.00
2023-05-01T06:24:32.721Z,584.00
2023-05-01T06:25:32.717Z,584.00
2023-05-01T06:26:32.703Z,586.00
2023-05-01T06:27:32.715Z,585.00
2023-05-01T06:28:32.691Z,586.00
2023-05-01T06:29:32.695Z,587.00
2023-05-01T06:30:32.708Z,587.00
2023-05-01T06:31:32.726Z,586.00
2023-05-01T06:32:32.837Z,586.00
2023-05-01T06:33:32.685Z,586.00
2023-05-01T06:34:32.631Z,586.00
2023-05-01T06:35:32.648Z,586.00
2023-05-01T06:36:32.650Z,589.00
2023-05-01T06:37:32.643Z,589.00
2023-05-01T06:38:32.602Z,588.00
2023-05-01T06:39:32.641Z,588.00
2023-05-01T06:40:32.600Z,587.00
2023-05-01T06:41:32.604Z,586.00
2023-05-01T06:42:32.639Z,586.00
2023-05-01T06:43:32.622Z,587.00
2023-05-01T06:44:32.972Z,587.00
2023-05-01T06:45:32.577Z,585.00
2023-05-01T06:46:32.587Z,585.00
2023-05-01T06:47:32.680Z,581.00
2023-05-01T06:48:32.567Z,581.00
2023-05-01T06:49:32.528Z,582.00
2023-05-01T06:50:32.541Z,583.00
2023-05-01T06:51:32.560Z,579.00
2023-05-01T06:52:32.576Z,579.00
2023-05-01T06:53:32.534Z,578.00
2023-05-01T06:54:32.504Z,578.00
2023-05-01T06:55:33.800Z,578.00
2023-05-01T06:56:32.505Z,578.00
2023-05-01T06:57:32.474Z,579.00
2023-05-01T06:58:33.198Z,582.00
2023-05-01T06:59:32.564Z,581.00
2023-05-01T07:00:32.482Z,581.00
2023-05-01T07:01:34.681Z,581.00
2023-05-01T07:02:32.559Z,581.00
2023-05-01T07:03:32.521Z,583.00
2023-05-01T07:04:32.490Z,585.00
2023-05-01T07:05:32.578Z,585.00
2023-05-01T07:06:32.535Z,585.00
2023-05-01T07:07:32.460Z,583.00
2023-05-01T07:08:32.412Z,583.00
2023-05-01T07:09:32.429Z,581.00
2023-05-01T07:10:32.396Z,578.00
2023-05-01T07:11:32.420Z,577.00
2023-05-01T07:12:32.386Z,575.00
2023-05-01T07:13:32.357Z,575.00
2023-05-01T07:14:32.369Z,576.00
2023-05-01T07:15:32.392Z,576.00
2023-05-01T07:16:32.434Z,579.00
2023-05-01T07:17:32.421Z,579.00
2023-05-01T07:18:33.229Z,576.00
2023-05-01T07:19:32.377Z,576.00
2023-05-01T07:20:32.336Z,576.00
2023-05-01T07:21:32.359Z,579.00
2023-05-01T07:22:32.321Z,578.00
2023-05-01T07:23:32.347Z,580.00
2023-05-01T07:24:32.413Z,580.00
2023-05-01T07:25:32.290Z,581.00
2023-05-01T07:26:32.344Z,582.00
2023-05-01T07:27:32.286Z,581.00
2023-05-01T07:28:32.275Z,580.00
2023-05-01T07:29:32.260Z,582.00
2023-05-01T07:30:32.274Z,582.00
2023-05-01T07:31:32.321Z,582.00
2023-05-01T07:32:32.383Z,582.00
2023-05-01T07:33:32.295Z,582.00
2023-05-01T07:34:32.342Z,580.00
2023-05-01T07:35:32.333Z,579.00
2023-05-01T07:36:32.234Z,580.00
2023-05-01T07:37:32.352Z,582.00
2023-05-01T07:38:32.201Z,584.00
2023-05-01T07:39:32.336Z,582.00
2023-05-01T07:40:32.203Z,583.00
2023-05-01T07:41:32.258Z,583.00
2023-05-01T07:42:32.329Z,582.00
2023-05-01T07:43:32.274Z,582.00
2023-05-01T07:44:32.270Z,581.00
2023-05-01T07:45:32.235Z,581.00
2023-05-01T07:46:32.201Z,581.00
2023-05-01T07:47:32.221Z,581.00
2023-05-01T07:48:32.159Z,580.00
2023-05-01T07:49:32.164Z,580.00
2023-05-01T07:50:32.126Z,579.00
2023-05-01T07:51:32.215Z,578.00
2023-05-01T07:52:32.183Z,580.00
2023-05-01T07:53:32.387Z,578.00
2023-05-01T07:54:32.249Z,578.00
2023-05-01T07:55:32.329Z,579.00
2023-05-01T07:56:32.404Z,579.00
2023-05-01T07:57:32.366Z,582.00
2023-05-01T07:58:32.427Z,580.00
2023-05-01T07:59:32.494Z,581.00
2023-05-01T08:00:32.473Z,581.00
2023-05-01T08:01:32.528Z,582.00
2023-05-01T08:02:32.792Z,581.00
2023-05-01T08:03:32.803Z,580.00
2023-05-01T08:04:32.795Z,578.00
2023-05-01T08:05:32.715Z,578.00
2023-05-01T08:06:32.857Z,578.00
2023-05-01T08:07:32.830Z,578.00
2023-05-01T08:08:32.887Z,577.00
2023-05-01T08:09:32.909Z,578.00
2023-05-01T08:10:32.938Z,580.00
2023-05-01T08:11:32.984Z,581.00
2023-05-01T08:12:33.074Z,580.00
2023-05-01T08:13:33.746Z,579.00
2023-05-01T08:14:33.139Z,580.00
2023-05-01T08:15:33.175Z,582.00
2023-05-01T08:16:33.289Z,582.00
2023-05-01T08:17:33.393Z,582.00
2023-05-01T08:18:33.298Z,582.00
2023-05-01T08:19:33.344Z,583.00
2023-05-01T08:20:33.393Z,585.00
2023-05-01T08:21:33.388Z,583.00
2023-05-01T08:22:33.490Z,584.00
2023-05-01T08:23:33.489Z,584.00
2023-05-01T08:24:33.506Z,585.00
2023-05-01T08:25:33.577Z,584.00
2023-05-01T08:26:33.570Z,584.00
2023-05-01T08:27:33.680Z,585.00
2023-05-01T08:28:33.607Z,585.00
2023-05-01T08:29:33.671Z,585.00
2023-05-01T08:30:33.706Z,587.00
2023-05-01T08:31:33.729Z,586.00
2023-05-01T08:32:33.951Z,585.00
2023-05-01T08:33:33.809Z,586.00
2023-05-01T08:34:33.804Z,586.00
2023-05-01T08:35:33.854Z,584.00
2023-05-01T08:36:33.866Z,582.00
2023-05-01T08:37:34.265Z,580.00
2023-05-01T08:38:33.998Z,579.00
2023-05-01T08:39:33.958Z,579.00
2023-05-01T08:40:33.936Z,578.00
2023-05-01T08:41:34.004Z,578.00
2023-05-01T08:42:34.039Z,578.00
2023-05-01T08:43:34.037Z,577.00
2023-05-01T08:44:34.105Z,579.00
2023-05-01T08:45:34.141Z,580.00
2023-05-01T08:46:34.293Z,581.00
2023-05-01T08:47:34.813Z,582.00
2023-05-01T08:48:34.246Z,581.00
2023-05-01T08:49:34.207Z,581.00
2023-05-01T08:50:34.223Z,582.00
2023-05-01T08:51:34.263Z,580.00
2023-05-01T08:52:34.826Z,578.00
2023-05-01T08:53:34.365Z,576.00
2023-05-01T08:54:34.406Z,573.00
2023-05-01T08:55:34.470Z,573.00
2023-05-01T08:56:34.435Z,576.00
2023-05-01T08:57:34.764Z,578.00
2023-05-01T08:58:34.514Z,579.00
2023-05-01T08:59:34.538Z,580.00
2023-05-01T09:00:34.569Z,578.00
2023-05-01T09:01:34.602Z,580.00
2023-05-01T09:02:34.677Z,580.00
2023-05-01T09:03:34.705Z,578.00
2023-05-01T09:04:34.679Z,577.00
2023-05-01T09:05:34.709Z,574.00
2023-05-01T09:06:34.803Z,574.00
2023-05-01T09:07:34.847Z,577.00
2023-05-01T09:08:34.817Z,579.00
2023-05-01T09:09:34.820Z,580.00
2023-05-01T09:10:34.873Z,578.00
2023-05-01T09:11:34.872Z,577.00
2023-05-01T09:12:35.310Z,576.00
2023-05-01T09:13:34.978Z,576.00
2023-05-01T09:14:35.070Z,577.00
2023-05-01T09:15:35.043Z,578.00
2023-05-01T09:16:35.117Z,577.00
2023-05-01T09:17:35.098Z,582.00
2023-05-01T09:18:35.126Z,581.00
2023-05-01T09:19:35.121Z,584.00
2023-05-01T09:20:35.150Z,583.00
2023-05-01T09:21:35.216Z,584.00
2023-05-01T09:22:35.325Z,584.00
2023-05-01T09:23:35.251Z,584.00
2023-05-01T09:24:35.259Z,581.00
2023-05-01T09:25:35.337Z,579.00
2023-05-01T09:26:35.325Z,577.00
2023-05-01T09:27:35.369Z,575.00
2023-05-01T09:28:35.402Z,574.00
2023-05-01T09:29:35.404Z,575.00
2023-05-01T09:30:35.564Z,576.00
2023-05-01T09:31:35.558Z,577.00
2023-05-01T09:32:35.673Z,580.00
2023-05-01T09:33:35.572Z,581.00
2023-05-01T09:34:35.555Z,583.00
2023-05-01T09:35:35.609Z,580.00
2023-05-01T09:36:35.624Z,579.00
2023-05-01T09:37:35.664Z,577.00
2023-05-01T09:38:35.686Z,576.00
2023-05-01T09:39:35.677Z,574.00
2023-05-01T09:40:35.755Z,575.00
2023-05-01T09:41:35.757Z,572.00
2023-05-01T09:42:35.820Z,572.00
2023-05-01T09:43:35.769Z,571.00
2023-05-01T09:44:35.833Z,571.00
2023-05-01T09:45:35.914Z,571.00
2023-05-01T09:46:35.956Z,571.00
2023-05-01T09:47:35.952Z,570.00
2023-05-01T09:48:36.295Z,574.00
2023-05-01T09:49:36.012Z,575.00
2023-05-01T09:50:36.017Z,576.00
2023-05-01T09:51:36.055Z,575.00
2023-05-01T09:52:36.079Z,572.00
2023-05-01T09:53:36.121Z,571.00
2023-05-01T09:54:36.145Z,569.00
2023-05-01T09:55:36.168Z,568.00
2023-05-01T09:56:36.205Z,569.00
2023-05-01T09:57:36.305Z,569.00
2023-05-01T09:58:36.320Z,570.00
2023-05-01T09:59:36.400Z,569.00
2023-05-01T10:00:36.416Z,568.00
2023-05-01T10:01:36.477Z,569.00
2023-05-01T10:02:36.855Z,566.00
2023-05-01T10:03:36.550Z,566.00
2023-05-01T10:04:36.557Z,564.00
2023-05-01T10:05:36.614Z,563.00
2023-05-01T10:06:36.671Z,562.00
2023-05-01T10:07:36.690Z,564.00
2023-05-01T10:08:36.689Z,569.00
2023-05-01T10:09:36.720Z,569.00
2023-05-01T10:10:36.728Z,571.00
2023-05-01T10:11:36.776Z,570.00
2023-05-01T10:12:36.819Z,569.00
2023-05-01T10:13:36.834Z,568.00
2023-05-01T10:14:36.846Z,567.00
2023-05-01T10:15:36.876Z,565.00
2023-05-01T10:16:36.998Z,564.00
2023-05-01T10:17:37.012Z,564.00
2023-05-01T10:18:36.985Z,564.00
2023-05-01T10:19:37.045Z,564.00
2023-05-01T10:20:37.088Z,564.00
2023-05-01T10:21:37.101Z,563.00
2023-05-01T10:22:37.202Z,562.00
2023-05-01T10:23:37.192Z,563.00
2023-05-01T10:24:37.201Z,563.00
2023-05-01T10:25:37.247Z,564.00
2023-05-01T10:26:37.246Z,562.00
2023-05-01T10:27:37.330Z,562.00
2023-05-01T10:28:37.286Z,561.00
2023-05-01T10:29:37.306Z,561.00
2023-05-01T10:30:38.314Z,562.00
2023-05-01T10:31:38.217Z,562.00
2023-05-01T10:32:37.497Z,564.00
2023-05-01T10:33:38.259Z,565.00
2023-05-01T10:34:37.478Z,564.00
2023-05-01T10:35:37.529Z,564.00
2023-05-01T10:36:37.560Z,565.00
2023-05-01T10:37:37.621Z,565.00
2023-05-01T10:38:37.596Z,566.00
2023-05-01T10:39:37.652Z,566.00
2023-05-01T10:40:37.729Z,568.00
2023-05-01T10:41:37.678Z,568.00
2023-05-01T10:42:37.752Z,567.00
2023-05-01T10:43:37.717Z,569.00
2023-05-01T10:44:37.768Z,569.00
2023-05-01T10:45:37.831Z,569.00
2023-05-01T10:46:37.966Z,568.00
2023-05-01T10:47:38.820Z,567.00
2023-05-01T10:48:37.997Z,567.00
2023-05-01T10:49:37.969Z,568.00
2023-05-01T10:50:37.981Z,568.00
2023-05-01T10:51:38.056Z,569.00
2023-05-01T10:52:38.061Z,568.00
2023-05-01T10:53:38.066Z,566.00
2023-05-01T10:54:38.094Z,564.00
2023-05-01T10:55:38.165Z,563.00
2023-05-01T10:56:38.173Z,562.00
2023-05-01T10:57:38.234Z,562.00
2023-05-01T10:58:38.232Z,560.00
2023-05-01T10:59:38.274Z,562.00
2023-05-01T11:00:38.261Z,565.00
2023-05-01T11:01:38.373Z,569.00
2023-05-01T11:02:38.357Z,569.00
2023-05-01T11:03:38.368Z,569.00
2023-05-01T11:04:38.392Z,570.00
2023-05-01T11:05:38.891Z,572.00
2023-05-01T11:06:38.501Z,570.00
2023-05-01T11:07:38.569Z,573.00
2023-05-01T11:08:38.617Z,574.00
2023-05-01T11:09:38.621Z,575.00
2023-05-01T11:10:38.618Z,573.00
2023-05-01T11:11:38.638Z,577.00
2023-05-01T11:12:38.684Z,589.00
2023-05-01T11:13:38.731Z,587.00
2023-05-01T11:14:38.770Z,585.00
2023-05-01T11:15:38.819Z,584.00
2023-05-01T11:16:39.053Z,582.00
2023-05-01T11:17:38.943Z,582.00
2023-05-01T11:18:39.039Z,581.00
2023-05-01T11:19:38.944Z,577.00
2023-05-01T11:20:38.989Z,573.00
2023-05-01T11:21:39.130Z,572.00
2023-05-01T11:22:39.301Z,571.00
2023-05-01T11:23:39.104Z,571.00
2023-05-01T11:24:39.136Z,575.00
2023-05-01T11:25:39.190Z,580.00
2023-05-01T11:26:39.232Z,583.00
2023-05-01T11:27:39.296Z,586.00
2023-05-01T11:28:39.284Z,585.00
2023-05-01T11:29:39.318Z,585.00
2023-05-01T11:30:39.379Z,586.00
2023-05-01T11:31:39.500Z,587.00
2023-05-01T11:32:39.550Z,599.00
2023-05-01T11:33:39.509Z,622.00
2023-05-01T11:34:39.550Z,631.00
2023-05-01T11:35:39.624Z,632.00
2023-05-01T11:36:39.655Z,643.00
2023-05-01T11:37:39.728Z,652.00
2023-05-01T11:38:39.706Z,649.00
2023-05-01T11:39:39.697Z,638.00
2023-05-01T11:40:39.734Z,624.00
2023-05-01T11:41:39.778Z,611.00
2023-05-01T11:42:39.867Z,603.00
2023-05-01T11:43:39.788Z,595.00
2023-05-01T11:44:39.803Z,592.00
2023-05-01T11:45:39.854Z,590.00
2023-05-01T11:46:39.895Z,591.00
2023-05-01T11:47:39.941Z,589.00
2023-05-01T11:48:39.947Z,586.00
2023-05-01T11:49:39.953Z,580.00
2023-05-01T11:50:40.008Z,577.00
2023-05-01T11:51:40.098Z,573.00
2023-05-01T11:52:40.077Z,572.00
2023-05-01T11:53:40.145Z,571.00
2023-05-01T11:54:40.132Z,572.00
2023-05-01T11:55:40.384Z,574.00
2023-05-01T11:56:40.203Z,576.00
2023-05-01T11:57:40.213Z,577.00
2023-05-01T11:58:40.259Z,576.00
2023-05-01T11:59:40.284Z,572.00
2023-05-01T12:00:40.318Z,570.00
2023-05-01T12:01:40.329Z,567.00
2023-05-01T12:02:40.420Z,567.00
2023-05-01T12:03:40.511Z,570.00
2023-05-01T12:04:40.466Z,570.00
2023-05-01T12:05:40.467Z,568.00
2023-05-01T12:06:40.695Z,569.00
2023-05-01T12:07:40.502Z,572.00
2023-05-01T12:08:40.822Z,573.00
2023-05-01T12:09:40.585Z,574.00
2023-05-01T12:10:40.625Z,574.00
2023-05-01T12:11:40.654Z,573.00
2023-05-01T12:12:40.670Z,575.00
2023-05-01T12:13:40.738Z,576.00
2023-05-01T12:14:40.768Z,575.00
2023-05-01T12:15:40.809Z,575.00
2023-05-01T12:16:40.856Z,575.00
2023-05-01T12:17:40.910Z,577.00
2023-05-01T12:18:40.909Z,578.00
2023-05-01T12:19:40.912Z,577.00
2023-05-01T12:20:40.946Z,577.00
2023-05-01T12:21:40.968Z,578.00
2023-05-01T12:22:40.991Z,577.00
2023-05-01T12:23:41.067Z,576.00
2023-05-01T12:24:41.099Z,574.00
2023-05-01T12:25:41.177Z,572.00
2023-05-01T12:26:41.127Z,571.00
2023-05-01T12:27:41.160Z,571.00
2023-05-01T12:28:41.200Z,571.00